Water and Atmospheric Resources Monitoring Program - , Illinois State Water Survey

Water and Atmospheric Resources Monitoring Program (WARM)

Weather Soil Groundwater Sediment Streamflow Reservoirs

#367 Silver Creek (USGS #5594800)


Instantaneous Suspended Sediment Measurements

Date Time    Gage Ht. Temp Cs Qw Qs Final F
i
n
a
l
     (feet) (C) (mg/l) (cfs) (t/d)  
10/13/1980 15:46    0.52 15 81.00 6.9 1.5 True x
10/27/1980 14:30    0.57 53.00 8.7 1.2 True x
11/10/1980 13:45    0.64 48.00 11.5 1.5 True x
11/26/1980 14:00    0.74 32.00 16 1.4 True x
12/9/1980 08:30    0.87 68.00 22.4 4.1 True x
1/29/1981 11:00    0.69  20.00 13.8 0.7 True x
2/24/1981 10:10    2.10 90.00 101 24.5 True x
3/6/1981 12:30    1.80 50.00 77.9 10.5 True x
3/12/1981 13:35    0.88 58.00 23 3.6 True x
3/21/1981 14:25    0.58 56.00 1.4 True x
4/6/1981 11:45    0.95 14 156.00 26.5 11.2 True x
4/7/1981 07:15    0.81 14 117.00 19.3 6.1 True x
4/7/1981 09:30    0.80 15 154.00 18.8 7.8 True x
4/8/1981 08:45    0.66 15 101.00 12.4 3.4 True x
4/10/1981 08:35    0.71 18 134.00 14.7 5.3 True x
4/11/1981 10:15    0.69 19 113.00 13.8 4.2 True x
4/12/1981 08:20    0.64 19 96.00 11.5 3.0 True x
4/13/1981 09:00    0.89 19 91.00 23.5 5.8 True x
4/14/1981 07:00    0.81 16 84.00 19.3 4.4 True x
4/15/1981 07:00    0.67 12 90.00 12.9 3.1 True x
4/16/1981 07:00    0.61 18 86.00 10.2 2.4 True x
4/17/1981 07:35    0.59 19 109.00 9.4 2.8 True x
4/18/1981 08:35    0.69 18 90.00 13.8 3.3 True x
4/19/1981 08:45    0.80 19 105.00 18.8 5.3 True x
4/20/1981 09:45    1.22 15 109.00 40.5 11.9 True x
4/21/1981 10:15    1.38 14 103.00 49.9 13.9 True x
4/22/1981 07:10    1.01 15 77.00 29.5 6.1 True x
4/23/1981 08:15    1.25 15 197.00 42.3 22.5 True x
4/24/1981 07:30    1.45 12 205.00 54.3 30.0 True x
4/25/1981 07:30    3.49 13 563.00 237.7 361.3 True x
4/26/1981 08:15    3.02 14 556.00 186.1 279.4 True x
4/27/1981 09:00    1.58 18 207.00 62.6 35.0 True x
4/28/1981 07:25    1.16 18 183.00 37.2 18.4 True x
4/29/1981 07:00    0.90 19 121.00 24 7.8 True x
4/30/1981 08:00    0.77 18 98.00 17.4 4.6 True x
5/1/1981 07:25    0.69 18 94.00 13.8 3.5 True x
5/2/1981 08:30    0.66 15 108.00 12.4 3.6 True x
5/3/1981 08:45    0.68 15 91.00 13.3 3.3 True x
5/4/1981 08:45    0.59 16 89.00 9.4 2.2 True x
5/5/1981 07:50    0.57 15 83.00 8.7 1.9 True x
5/6/1981 07:35    0.59 13 166.00 9.4 4.2 True x
5/6/1981 16:00    0.65 16 82.00 12 2.6 True x
5/7/1981 08:55    0.77 12 79.00 17.4 3.7 True x
5/9/1981 09:00    0.58 15 66.00 1.6 True x
5/10/1981 09:00    0.57 16 75.00 8.7 1.8 True x
5/11/1981 07:40    0.79 12 76.00 18.3 3.8 True x
5/21/1981 08:20    8.02 14 622.00 947 1,590.0 True x
5/22/1981 08:40    5.61 14 373.00 530.2 534.0 True x
5/23/1981 09:10    3.11 16 453.00 195.6 239.2 True x
5/24/1981 08:15    2.56 18 388.00 140.9 147.6 True x
5/25/1981 08:20    2.34 18 409.00 121.2 133.8 True x
5/28/1981 08:30    1.74 19 384.00 73.6 76.3 True x
5/29/1981 07:45    1.37 20 337.00 49.3 44.9 True x
5/30/1981 08:00    1.17 20 221.00 37.8 22.5 True x
6/1/1981 08:15    1.25 19 386.00 42.3 44.0 True x
6/2/1981 07:30    3.85 20 1,023.00 280.6 774.9 True x
6/3/1981 08:30    5.85 20 2,462.00 569.2 3,779.0 True x
6/4/1981 08:55    4.23 20 2,143.00 329 1,902.0 True x
6/4/1981 15:30    4.04 24 2,489.00 304.4 2,043.0 True x
6/6/1981 07:45    4.55 22 1,869.00 372.1 1,875.0 True x
6/7/1981 16:00    5.84 30 2,186.00 567.5 3,346.0 True x
6/8/1981 08:00    3.54 23 1,197.00 243.4 786.8 True x
6/9/1981 07:30    2.14 23 824.00 104.3 232.0 True x
6/10/1981 14:30    1.47 23 386.00 55.5 57.9 True x
6/11/1981 08:45    1.21 22 309.00 40 33.3 True x
6/12/1981 10:20    1.21 23 281.00 40 30.3 True x
6/14/1981 13:15    0.91 27 186.00 24.5 12.3 True x
6/17/1981 08:10    0.71 23 157.00 14.7 6.2 True x
6/18/1981 07:20    0.73 21 165.00 15.6 6.9 True x
6/19/1981 11:20    0.71 23 171.00 14.7 6.8 True x
6/20/1981 11:00    1.49 23 629.00 56.8 96.4 True x
6/21/1981 10:00    2.56 24 644.00 140.9 245.0 True x
6/23/1981 08:45    8.70 21 2,328.00 1087 6,824.0 True x
6/24/1981 07:45    9.07 21 1,120.00 1155 3,493.0 True x
6/25/1981 08:15    5.41 22 793.00 498.7 1,068.0 True x
6/26/1981 07:55    2.63 22 763.00 147.5 303.8 True x
6/27/1981 08:45    1.18 21 383.00 38.3 39.6 True x
6/29/1981 07:10    1.07 23 216.00 32.5 19.0 True x
6/30/1981 07:15    0.90 24 174.00 24 11.3 True x
7/1/1981 06:15    0.78 23 211.00 17.9 10.2 True x
7/1/1981 18:30    0.72 25 164.00 15.1 6.7 True x
7/2/1981 06:30    0.69 24 138.00 13.8 5.1 True x
7/2/1981 16:05    0.65 24 151.00 12 4.9 True x
7/3/1981 07:15    0.63 24 168.00 11.1 5.0 True x
7/3/1981 16:15    0.63 25 123.00 11.1 3.7 True x
7/4/1981 06:50    0.67 24 940.00 12.9 32.6 True x
7/4/1981 17:00    2.08 24 4,089.00 99.4 1,095.0 True x
7/5/1981 07:30    5.07 24 3,821.00 446.8 4,599.0 True x
7/5/1981 16:00    7.07 24 3,870.00 773.2 8,061.0 True x
7/6/1981 08:00    7.77 22 4,010.00 899.8 9,720.0 True x
7/6/1981 16:45    7.69 24 2,694.00 885 6,427.0 True x
7/7/1981 07:30    6.99 24 1,581.00 759.2 3,239.0 True x
7/7/1981 16:00    6.12 24 1,143.00 613.2 1,892.0 True x
7/8/1981 07:45    3.72 24 767.00 264.7 548.2 True x
7/8/1981 18:15    2.84 26 581.00 167.8 263.2 True x
7/9/1981 07:40    2.15 24 443.00 105.1 125.7 True x
7/9/1981 17:15    1.85 25 337.00 81.7 74.3 True x
7/10/1981 06:45    1.51 25 285.00 58.1 44.7 True x
7/10/1981 19:15    1.52 27 379.00 58.7 60.1 True x
7/11/1981 06:45    2.13 24 404.00 103.5 112.9 True x
7/11/1981 16:20    2.57 25 707.00 141.8 270.8 True x
7/12/1981 07:20    1.70 24 474.00 70.8 90.6 True x
7/12/1981 18:00    1.32 28 356.00 46.3 44.5 True x
7/13/1981 07:00    1.07 26 392.00 32.5 34.4 True x
7/13/1981 19:40    0.96 27 275.00 27 20.0 True x
7/14/1981 08:00    0.84 26 237.00 20.9 13.4 True x
7/14/1981 17:00    0.77 30 192.00 17.4 9.0 True x
7/15/1981 06:40    0.70 28 157.00 14.2 6.0 True x
7/15/1981 15:05    0.68 29 142.00 13.3 5.1 True x
7/16/1981 08:20    4.65 23 3,446.00 386.1 3,585.0 True x
7/16/1981 16:20    4.22 25 1,179.00 327.6 1,043.0 True x
7/17/1981 07:15    2.36 23 689.00 122.9 228.7 True x
7/17/1981 14:00    1.90 26 478.00 85.4 110.2 True x
7/17/1981 16:30    1.80 24 450.00 77.9 94.6 True x
7/18/1981 07:20    2.76 24 407.00 159.9 175.7 True x
7/19/1981 17:00    1.30 26 295.00 45.1 35.9 True x
7/24/1981 19:15    10.30 22 592.00 1449 2,316.0 True x
7/25/1981 09:00    10.57 23 639.00 1517 2,618.0 True x
7/27/1981 07:00    5.92 24 420.00 580.7 658.5 True x
7/29/1981 07:35    8.17 19 1,235.00 977.1 3,258.0 True x
8/4/1981 11:35    1.98 25 174.00 91.5 43.0 True x
8/11/1981 16:00    1.58 24 623.00 62.6 105.3 True x
8/20/1981 11:55    1.73 21 143.00 72.9 28.2 True x
8/25/1981 15:50    0.70 23 65.00 14.2 2.5 True x
9/3/1981 14:00    2.29 22 236.00 116.9 74.5 True x
9/9/1981 12:00    1.17 19 109.00 37.8 11.1 True x
9/14/1981 14:35    6.49  2,463.00 673.8 4,476.0 True x
9/22/1981 16:05    0.73 20 65.00 15.6 2.7 True x
10/15/1981 11:15    1.93 15 216.00 87.7 51.1 True x
10/22/1981 17:00    3.74 11 273.00 267.1 196.9 True x
10/28/1981 10:15    2.69 104.00 153.2 43.0 True x
11/4/1981 11:40    1.77 16 69.00 75.8 14.1 True x
11/10/1981 10:05    2.04 66.00 96.2 17.1 True x
11/17/1981 10:00    1.54 51.00 60 8.3 True x
12/2/1981 11:30    4.37 411.00 347.6 386.7 True x
12/9/1981 10:20    1.50 26.00 57.4 4.0 True x
12/16/1981 10:10    1.08 21.00 33 1.9 True x
1/5/1982 10:00    7.99 1,022.00 941.1 2,576.0 True x
3/2/1982 09:45    4.64 157.00 384.6 157.9 True x
3/10/1982 09:45    2.59 42.00 143.7 16.3 True x
3/16/1982 09:50    8.15 945.00 973.1 2,484.0 True x
3/25/1982 10:00    3.13 10 186.00 197.7 99.3 True x
3/30/1982 09:50    3.16 126.00 200.9 68.4 True x
4/6/1982 10:00    9.39 442.00 1234 1,463.0 True x
4/13/1982 09:45    3.06 13 115.00 190.3 59.1 True x
4/20/1982 09:45    3.62 13 303.00 252.8 206.8 True x
4/29/1982 09:45    1.84 14 94.00 80.9 20.5 True x
5/4/1982 09:45    1.46 18 95.00 54.9 14.1 True x
5/11/1982 09:45    1.42 20 128.00 52.4 18.1 True x
5/18/1982 09:45    0.98 22 140.00 28 11.3 True x
5/25/1982 09:30    0.87 20 117.00 22.5 7.1 True x
6/1/1982 09:45    10.76 18 2,250.00 1563 9,509.0 True x
6/8/1982 09:45    5.76 20 646.00 554.4 967.4 True x
6/22/1982 09:45    2.86 20 497.00 169.8 227.9 True x
6/29/1982 09:50    4.51 23 2,729.00 366.6 2,706.0 True x
7/7/1982 09:45    6.88 24 596.00 740.1 1,191.0 True x
7/13/1982 10:00    9.01 24 629.00 1157 1,937.0 True x
7/23/1982 09:40    3.20 23 1,391.00 205.2 771.3 True x
7/29/1982 11:55    1.10 26 118.00 34 10.8 True x
8/3/1982 09:50    0.79 26 51.00 18.4 2.5 True x
8/10/1982 09:45    0.87 23 125.00 22.5 7.6 True x
8/17/1982 09:50    0.83 23 98.00 20.4 5.4 True x
8/24/1982 10:00    0.59 23 57.00 9.4 1.5 True x
8/31/1982 09:45    0.71 22 85.00 14.7 3.4 True x
9/21/1982 10:20    3.18 16 232.00 203.1 127.2 True x
10/21/1983 09:00    8.94 13 1,065.00 1138 3,272.0 True x
12/14/1983 10:30    17.23 202.00 5106 2,785.0 True x
1/24/1984 10:30    1.67 50.00 69 9.0 True x
2/8/1984 10:15    3.42 32.00 230 20.0 True x
3/7/1984 15:12    13.70 101.00 2406 656.0 True x
3/14/1984 11:00    3.80 48.00 274 36.0 True x
3/19/1984 15:15    11.65 269.00 1804 1,310.0 True x
3/27/1984 10:05    13.31 235.00 2285 1,450.0 True x
4/3/1984 11:00    7.10 10 386.00 778 811.0 True x
4/20/1984 10:30    2.96 13 151.00 180 73.0 True x
4/26/1984 10:50    14.61 16 126.00 2912 991.0 True x
5/1/1984 11:14    4.23 16 191.00 329 170.0 True x
5/24/1984 10:30    1.94 21 137.00 88 33.0 True x
5/30/1984 11:00    4.66 16 353.00 387 369.0 True x
6/4/1984 14:27    1.65 25 109.00 67 20.0 True x
7/24/1984 09:50    0.63 28 93.00 11 3.0 True x
8/16/1984 10:30    0.52 25 47.00 1.0 True x
9/12/1984 10:20    6.15 22 632.00 618 1,055.0 True x
9/26/1984 10:30    8.09 19 258.00 961 669.0 True x
10/11/1984 11:00    1.44 18 166.00 53 26.0 True x
10/24/1984 10:30    9.12 13 135.00 1177 477.0 True x
10/29/1984 10:30    3.55  120.00 245 88.0 True x
11/29/1984 10:40    14.67 211.00 2955 1,870.0 True x
12/11/1984 10:00    3.07 15.00 191 9.0 True x
1/2/1985 11:00    17.84 171.00 5741 2,945.0 True x
2/27/1985 10:25    16.68 88.00 4577 1,208.0 True x
3/13/1985 10:30    7.78  419.00 902 1,134.0 True x
3/19/1985 14:11    3.37  68.00 224 46.0 True x
3/26/1985 10:33    2.28  58.00 116 20.0 True x
4/9/1985 10:10    12.15  140.00 1943 816.0 True x
4/9/1985 10:40    12.15  139.00 1943 810.0 True x
4/16/1985 13:00    9.70  216.00 1306 846.0 True x
4/27/1985 09:45    2.85  44.00 169 22.0 True x
5/2/1985 18:15    6.26  963.00 636 1,837.0 True x
5/10/1985 20:00    1.83  68.00 80 16.0 True x
5/17/1985 08:00    2.22  113.00 111 38.0 True x
5/23/1985 19:00    1.70  82.00 71 17.0 True x
5/31/1985 20:00    1.20  53.00 39 6.0 True x
6/4/1985 10:30    1.55  146.00 61 27.0 True x
6/7/1985 11:00    9.40  499.00 1238 1,853.0 True x
6/14/1985 15:25    10.06  327.00 1390 1,364.0 True x
6/19/1985 12:00    5.17  252.00 462 349.0 True x
7/8/1985 17:30    1.32  238.00 46 33.0 True x
7/17/1985 12:00    0.81  62.00 19 3.0 True x
7/24/1985 12:00    1.74  110.00 74 24.0 True x
7/30/1985 13:00    1.06  128.00 32 12.0 True x
8/6/1985 09:30    1.12  117.00 35 12.0 True x
8/14/1985 08:30    3.08  407.00 192 234.0 True x
8/21/1985 08:00    1.10  99.00 34 10.0 True x
8/29/1985 18:30    1.35  106.00 48 15.0 True x
9/4/1985 09:00    0.81  64.00 19 4.0 True x
9/12/1985 08:30    0.54  11.00 0.0 True x
9/23/1985 08:30    0.54  137.00 3.0 True x
9/29/1985 15:00    0.64  14.00 11 0.0 True x
10/4/1985 16:00    0.58  39.00 1.0 True x
10/9/1985 08:30    0.52  15.00 0.0 True x
10/17/1985 11:00    1.08  31.00 33 3.0 True x
10/22/1985 13:00    1.34  78.00 47 10.0 True x
10/30/1985 17:00    1.29  16.00 44 2.0 True x
11/4/1985 13:00    1.25  14.00 42 2.0 True x
11/13/1985 08:00    1.25  91.00 42 10.0 True x
11/22/1985 16:30    12.70  178.00 2102 1,010.0 True x
12/7/1985 15:30    2.82  44.00 166 20.0 True x
1/12/1986 13:00    1.93  18.00 88 4.0 True x
1/17/1986 17:00    1.91  8.00 86 2.0 True x
1/24/1986 15:00    1.71  10.00 71 2.0 True x
1/30/1986 12:00    1.52  10.00 59 2.0 True x
2/3/1986 12:00    20.20  799.00 8553 18,451.0 True x
2/10/1986 15:30    10.87  224.00 1595 965.0 True x
2/17/1986 14:00    3.80  109.00 274 81.0 True x
2/24/1986 13:00    3.39  74.00 226 45.0 True x
2/26/1986 10:30    3.15  49.00 200 26.0 True x
3/4/1986 12:00    2.37  40.00 124 13.0 True x
3/11/1986 10:00    2.28  61.00 116 19.0 True x
3/18/1986 17:00    2.87  341.00 171 157.0 True x
3/31/1986 12:00    1.93  63.00 88 15.0 True x
4/7/1986 18:00    1.63  145.00 66 26.0 True x
4/14/1986 12:00    1.52  129.00 59 20.0 True x
4/21/1986 12:00    1.55  142.00 61 23.0 True x
4/28/1986 10:00    1.15  142.00 37 14.0 True x
5/5/1986 09:00    1.10  123.00 34 11.0 True x
5/12/1986 09:00    1.09  171.00 33 15.0 True x
5/22/1986 13:00    1.08  78.00 33 7.0 True x
5/27/1986 12:00    1.10  90.00 34 8.0 True x
6/8/1986 13:00    1.64  365.00 67 66.0 True x
6/10/1986 17:00    8.60  2,118.00 1066 6,096.0 True x
6/19/1986 20:00    1.05  87.00 31 7.0 True x
6/27/1986 11:00    0.67  57.00 13 2.0 True x
7/11/1986 13:00    2.54  355.00 139 133.0 True x
7/15/1986 08:00    7.38  549.00 828 1,227.0 True x
7/15/1986 09:20    7.41 24 742.00 834 1,671.0 True x
7/28/1986 19:00    0.66  40.00 12 1.0 True x
8/3/1986 09:00    0.46  68.00 1.0 True x
8/19/1986 12:00    0.64  97.00 11 3.0 True x
8/28/1986 12:00    0.68  73.00 13 3.0 True x
9/4/1986 14:00    0.49  50.00 1.0 True x
9/8/1986 14:00    0.45  40.00 0.0 True x
9/19/1986 12:00    2.26  451.00 114 139.0 True x
10/2/1986 16:00    9.46  999.00 1394 3,760.0 True x
10/9/1986 19:00    6.83  168.00 808.3 366.6 True x
10/17/1986 09:00    1.63  117.00 98.4 31.1 True x
10/27/1986 12:00    4.55  152.00 447 183.4 True x
11/5/1986 10:00    1.89  64.00 123.7 21.4 True x
11/12/1986 14:00    1.55  20.00 91 4.9 True x
11/19/1986 16:00    1.38  13.00 76.3 2.7 True x
11/25/1986 09:00    1.40  10.00 78 2.1 True x
12/2/1986 15:00    7.14  552.00 868.3 1,294.1 True x
12/11/1986 13:00    3.35  50.00 287.9 38.9 True x
12/17/1986 10:00    2.00  13.00 135 4.7 True x
12/18/1986 10:30    6.07  146.00 680.8 268.4 True x
12/30/1986 16:00    1.45  60.00 82.2 13.3 True x
1/4/1987 17:00    1.44  38.00 81.4 8.3 True x
1/13/1987 15:00    1.67  9.00 102.1 2.5 True x
1/23/1987 16:00    2.76  28.00 216.5 16.4 True x
1/29/1987 16:00    1.90  25.00 124.7 8.4 True x
2/3/1987 09:00    7.71  918.00 987.2 2,446.9 True x
2/18/1987 13:00    2.09  13.00 144 5.1 True x
2/26/1987 12:00    2.05  23.00 139 8.6 True x
3/2/1987 11:00    7.90  689.00 1028 1,912.4 True x
3/11/1987 10:00    2.24  19.00 159.3 8.2 True x
3/19/1987 09:00    4.71  242.00 469.8 307.0 True x
3/25/1987 17:00    5.28  208.00 555.2 311.8 True x
4/2/1987 10:30    2.35  27.00 170.8 12.5 True x
4/9/1987 09:00    1.71  62.00 105.9 17.7 True x
4/14/1987 12:00    6.70 13 987.00 784.3 2,090.1 True x
4/17/1987 12:00    10.40  303.00 1624 1,328.6 True x
5/1/1987 08:00    1.56  81.00 91.9 20.1 True x
5/5/1987 09:00    3.84  613.00 350.8 580.6 True x
5/15/1987 17:00    1.23  64.00 64.2 11.1 True x
5/21/1987 09:00    0.98  80.00 45.4 9.8 True x
5/28/1987 09:00    0.78  113.00 31.2 9.5 True x
6/3/1987 12:00    0.65  137.00 23 8.5 True x
6/10/1987 12:00    0.70  104.00 26 7.3 True x
6/18/1987 13:30    1.97  110.00 131.9 39.2 True x
6/22/1987 12:00    1.73  218.00 107.9 63.5 True x
7/2/1987 10:00    3.96  1,649.00 366.7 1,632.7 True x
7/8/1987 18:00    9.05  1,149.00 1301 4,036.1 True x
7/13/1987 11:00    3.94  550.00 364 540.5 True x
7/27/1987 09:00    0.66  82.00 23.6 5.2 True x
8/7/1987 09:00    0.64  81.00 22.5 4.9 True x
8/10/1987 12:00    6.50  397.00 748 801.8 True x
8/19/1987 12:00    0.65  94.00 23 5.8 True x
8/24/1987 09:00    0.64  79.00 22.5 4.8 True x
8/27/1987     5.13 22 1,852.00 531.9 2,659.7 True x
9/1/1987 15:00    0.77  80.00 30.5 6.6 True x
9/9/1987 09:00    0.52  75.00 15.9 3.2 True x
9/21/1987 10:00    0.72  119.00 27.3 8.8 True x
9/30/1987 09:30    3.29  235.00 280.4 177.9 True x
10/11/1987 13:00    0.64  65.00 22.5 3.9 True x
10/23/1987 10:00    0.55  35.00 17.5 1.7 True x
10/25/1987 01:00    2.15  216.00 150 87.5 True x
11/8/1987 10:00    0.71  44.00 26.6 3.2 True x
11/17/1987 13:00    2.82  328.00 223.5 197.9 True x
11/26/1987 13:00    7.37  327.00 915.5 808.7 True x
11/29/1987 15:00    7.74  405.00 993.6 1,089.0 True x
12/8/1987 12:00    7.09  629.00 858.1 1,458.7 True x
12/17/1987 09:00    9.51  213.00 1406 811.4 True x
12/21/1987 12:00    16.35  197.00 4321 2,300.2 True x
12/28/1987 12:00    16.18  190.00 4174 2,149.3 True x
1/20/1988 08:00    9.75  1,427.00 1461 5,630.2 True x
1/29/1988 12:00    2.42  48.00 178.3 23.3 True x
2/3/1988 12:00    17.36  307.00 5268 4,369.6 True x
2/8/1988 16:00    4.78  152.00 479.9 197.7 True x
2/16/1988 12:00    5.90  426.00 653.7 752.0 True x
2/23/1988 12:00    9.56  233.00 1417 894.9 True x
3/8/1988 17:00    12.82  201.00 2296 1,247.8 True x
3/14/1988 12:00    4.00  150.00 372 150.7 True x
3/19/1988 09:00    2.68  36.00 207.3 20.4 True x
3/26/1988 12:00    4.64  395.00 458.4 489.6 True x
3/29/1988     2.97  841.00 241.4 548.6 True x
3/29/1988 10:30    2.91 12 535.00 234.2 338.4 True x
3/31/1988 14:00    8.61  922.00 1194 2,975.5 True x
4/13/1988 08:00    2.35  52.00 170.8 24.3 True x
4/19/1988 16:00    2.65  138.00 203.9 76.4 True x
4/29/1988 12:00    1.38  114.00 76.3 23.6 True x
5/6/1988 08:00    1.25  178.00 65.8 31.8 True x
5/11/1988 09:00    1.32  185.00 71.4 35.7 True x
5/16/1988 10:00    0.97  190.00 44.5 22.9 True x
5/24/1988 16:00    2.22  91.00 157.2 38.8 True x
6/2/1988 10:00    0.63  162.00 21.9 9.6 True x
6/17/1988 11:00    0.55  158.00 17.5 7.5 True x
7/1/1988 12:00    0.65  106.00 23 6.6 True x
7/10/1988 09:00    0.37  125.00 8.9 3.0 True x
7/14/1988 08:00    1.40  113.00 78 23.8 True x
7/21/1988 07:00    6.37  801.00 727.5 1,574.0 True x
7/31/1988 12:00    0.60  146.00 20.2 8.0 True x
8/5/1988 17:00    0.47  121.00 13.4 4.4 True x
8/23/1988 20:00    0.38  168.00 9.3 4.2 True x
9/3/1988 09:00    0.81  153.00 33.1 13.8 True x
9/3/1988 11:00    0.45  182.00 12.5 6.1 True x
9/20/1988 09:00    0.81  153.00 33.1 13.8 True x
5/19/1990 09:00    21.38  238.00 10040 6,454.6 True x
5/25/1990 12:30    7.30  351.00 901 856.1 True x
5/29/1990 08:00    10.75  222.00 1715 1,029.0 True x
6/4/1990 13:00    2.80  92.00 221.2 55.1 True x
6/8/1990 08:00    8.60  929.00 1191 2,989.4 True x
6/18/1990 09:00    1.55  60.00 91 14.8 True x
6/21/1990 07:00    5.35  1,529.00 566.2 2,338.2 True x
6/29/1990 08:00    1.40  74.00 78 15.7 True x
7/21/1990 09:00    0.71  53.00 26.6 3.9 True x
7/23/1990 12:00    1.67  91.00 102.1 25.2 True x
8/6/1990 06:30    2.25  388.00 160.3 168.1 True x
8/13/1990 18:00    0.53  65.00 16.4 2.9 True x
8/17/1990 09:00    0.85  84.00 35.7 8.2 True x
9/6/1990 09:00    0.46  47.00 12.9 1.6 True x
9/14/1990 09:00    0.90  64.00 39 6.8 True x
9/19/1990 12:00    0.39  54.00 9.7 1.4 True x
9/24/1990 10:00    0.60  167.00 20.2 9.1 True x
10/1/1990 08:00    0.26  27.00 2.3 0.2 True x
10/10/1990 12:30    5.10  800.00 500.8 1,081.9 True x
10/19/1990 16:00    1.32  68.00 54.4 10.1 True x
10/29/1990 16:00    0.46  178.00 8.4 4.0 True x
11/7/1990 21:00    0.82  77.00 24.9 5.2 True x
11/16/1990 09:00    0.55  44.00 12 1.4 True x
11/28/1990 16:30    7.50  1,115.00 942.6 2,840.0 True x
12/3/1990 10:00    3.74  254.00 301.1 206.8 True x
12/18/1990 21:30    3.44  165.00 262.6 117.6 True x
12/31/1990 13:00    12.35  186.00 2155 1,084.9 True x
1/3/1991 17:00    16.30  1,985.00 4278 22,932.0 True x
1/9/1991 17:00    3.50  80.00 307 67.0 True x
1/14/1991 16:30    6.00  68.00 670 124.6 True x
1/22/1991 16:30    10.10  103.00 1546 430.2 True x
2/5/1991 16:00    10.50  209.00 1650 931.2 True x
2/22/1991 11:00    3.10  58.00 257 40.4 True x
3/1/1991 11:00    2.03  24.00 138 8.9 True x
3/15/1991 10:00    4.34  138.00 417.9 155.7 True x
3/18/1991 13:00    8.27  1,120.00 1113 3,368.1 True x
3/23/1991 14:30    11.17  394.00 1824 1,944.3 True x
4/1/1991 17:00    2.10  30.00 145 11.9 True x
4/11/1991 17:00    1.63  32.00 98.4 8.5 True x
4/16/1991 17:30    13.50  242.00 2550 1,667.3 True x
4/20/1991 16:00    8.21  174.00 1099 518.8 True x
4/29/1991 08:00    2.00  39.00 135 14.2 True x
5/6/1991 18:30    2.70  104.00 209.6 58.9 True x
5/13/1991 17:30    4.30  1,316.00 412.4 1,465.3 True x
5/24/1991 08:00    1.34  153.00 73 30.3 True x
5/31/1991 08:00    2.30  177.00 165.6 79.3 True x
6/4/1991 18:00    1.06  113.00 51.3 15.7 True x
6/15/1991 11:00    0.60  132.00 20.2 7.2 True x
6/26/1991 08:00    1.00  165.00 47 21.0 True x
7/3/1991 11:00    1.92  637.00 126.7 218.1 True x
7/9/1991 16:00    0.45  74.00 82.2 16.5 True x
7/12/1991 18:00    8.32  782.00 1124 2,374.6 True x
7/23/1991 17:30    0.68  142.00 24.8 9.6 True x
8/7/1991 14:00    0.52  30.00 15.9 1.3 True x
8/16/1991 17:00    0.47  433.00 13.4 15.7 True x
8/21/1991 08:00    0.31  197.00 6.5 3.4 True x
8/26/1991 09:00    0.29  73.00 5.7 1.1 True x
8/30/1991 19:00    0.84  66.00 35.1 6.3 True x
9/6/1991 08:30    2.05  186.00 140 70.3 True x
9/13/1991 10:30    0.36  65.00 8.4 1.5 True x
9/19/1991 09:00    0.66  68.00 23.6 4.3 True x
9/25/1991 09:00    0.77  184.00 30.5 15.2 True x
10/1/1991 09:00    0.30  130.00 6.1 2.2 True x
10/7/1991 09:00    0.83  465.00 34.4 43.2 True x
10/21/1991 08:00    0.62  38.00 21.3 2.2 True x
10/25/1991 17:00    0.73  48.00 27.9 3.6 True x
10/31/1991 09:00    4.13  167.00 389.3 176.2 True x
11/5/1991 16:00    1.36  44.00 74.6 9.0 True x
11/13/1991 08:00    0.60  33.00 20.2 1.8 True x
11/21/1991 08:00    5.67  479.00 616.8 799.0 True x
11/28/1991 12:00    1.12  34.00 55.7 5.2 True x
12/4/1991 10:39    2.78 245.00 218.9 145.0 True x
12/9/1991 10:00    1.36  60.00 74.6 12.1 True x
12/18/1991 11:00    1.21  18.00 62.6 3.1 True x
1/7/1992 13:00    1.46  19.00 83.1 4.5 True x
1/15/1992 18:00    2.40  66.00 176.2 31.9 True x
1/20/1992 17:00    1.35  10.00 73.8 2.1 True x
1/29/1992 17:00    1.40  17.00 78 3.6 True x
1/30/1992 10:14    1.35 10.00 73.8 2.1 True x
2/3/1992 16:00    1.24  19.00 65 3.5 True x
2/12/1992 10:00    1.00  12.00 47 1.6 True x
2/19/1992 22:00    3.37  132.00 290.5 103.9 True x
2/26/1992 17:00    1.91  28.00 125.7 9.6 True x
3/6/1992 17:00    1.25  50.00 65.8 9.0 True x
3/15/1992 18:00    1.16  53.00 58.8 8.5 True x
3/16/1992 10:13    1.16 13.00 58.8 2.1 True x
3/18/1992 17:00    2.75  96.00 215.4 56.1 True x
3/31/1992 17:30    8.38  853.00 1139 2,624.6 True x
4/6/1992 22:00    2.25  63.00 160.3 27.3 True x
4/14/1992 11:00    1.84  68.00 118.7 22.0 True x
4/20/1992 12:00    8.59  408.00 1189 1,309.8 True x
4/28/1992 17:00    1.93  41.00 127.8 14.4 True x
4/30/1992 10:16    1.79 15 62.00 113.7 19.2 True x
5/5/1992 17:30    1.28  69.00 68.1 12.8 True x
5/13/1992 10:00    1.13  73.00 56.5 11.2 True x
5/18/1992 08:00    0.88  69.00 37.7 7.0 True x
5/28/1992 11:00    0.70  98.00 26 6.9 True x
6/8/1992 09:00    4.10  1,083.00 385.3 1,127.7 True x
6/11/1992 09:57    0.66  109.00 23.6 7.0 True x
6/15/1992 13:00    1.16  95.00 58.8 15.1 True x
6/22/1992 11:00    0.75  284.00 29.2 22.4 True x
6/29/1992 11:00    0.57  220.00 18.5 11.0 True x
7/2/1992 12:00    0.34  91.00 7.6 1.9 True x
7/6/1992 10:00    1.98  137.00 132.9 49.4 True x
7/13/1992 10:00    0.53  103.00 16.4 4.6 True x
7/23/1992 18:00    2.64  1,447.00 202.7 792.4 True x
7/28/1992 08:00    1.14  116.00 57.2 18.1 True x
7/29/1992 10:26    1.51 25 172.00 87.4 40.8 True x
8/2/1992 10:30    0.50  73.00 14.9 3.0 True x
8/9/1992 10:00    0.41  215.00 10.6 6.2 True x
8/18/1992 09:30    0.35  83.00 1.8 True x
8/26/1992 12:58    0.44 24 57.00 12 1.9 True x
8/28/1992 08:00    2.43  661.00 179.4 320.3 True x
9/2/1992 08:00    2.05  77.00 140 29.4 True x
9/9/1992 15:00    2.30  91.00 165.6 40.8 True x
9/14/1992 10:43    0.88 19 108.00 38.3 11.3 True x
9/19/1992 09:00    0.34  67.00 7.6 1.4 True x
9/22/1992 11:00    2.07  132.00 142 50.7 True x
10/1/1992 08:00    0.34  47.00 7.6 1.0 True x
10/8/1992 08:00    0.38  32.00 9.3 0.8 True x
10/12/1992 08:00    0.41  38.00 10.6 1.1 True x
10/22/1992 08:00    0.75  58.00 29.2 4.6 True x
10/28/1992 09:46    0.83 11 41.00 34.4 3.9 True x
11/2/1992 12:00    1.00  47.00 47 6.0 True x
11/6/1992 09:00    1.15  19.00 58 3.0 True x
11/12/1992 17:00    9.00  640.00 1290 2,232.0 True x
11/23/1992 17:00    8.09  443.00 1071 1,281.5 True x
12/5/1992 14:00    1.29  14.00 68.9 2.6 True x
12/11/1992 08:00    1.30  10.00 69.8 2.1 True x
12/16/1992 09:00    8.35  1,255.00 1132 3,837.8 True x
12/21/1992 16:00    5.54  79.00 596.3 127.7 True x
12/28/1992 10:40    1.77 15.00 111.7 4.7 True x
1/5/1993 08:00    9.75  734.00 1461 2,895.8 True x
1/14/1993 08:00    5.11  60.00 528.8 86.6 True x
1/21/1993 08:00    8.95  866.00 1277 2,989.3 True x
2/3/1993 16:00    2.65  32.00 203.9 17.8 True x
2/11/1993 08:00    2.22  33.00 157.2 14.4 True x
2/22/1993 17:00    8.32  557.00 1124 1,692.4 True x
3/8/1993 08:00    14.58  64.00 3022 524.5 True x
3/11/1993 08:00    9.34  93.00 1367 344.3 True x
3/15/1993 08:30    3.06  41.00 252.2 28.0 True x
3/26/1993 08:00    8.55  153.00 1179 487.9 True x
4/2/1993 13:00    3.33  53.00 285.4 41.0 True x
9/21/1993 13:26    2.50 16 122.00 187 61.7 True x
9/26/1993 15:00    16.02 15 77.00 4040 841.0 True x
10/7/1993 18:00    3.43 14 199.00 298.1 160.6 True x
10/12/1993 17:00    1.65 12 63.00 100.2 17.1 True x
10/21/1993 12:00    1.27 14 304.00 67.3 55.3 True x
10/26/1993 19:00    1.00 72.00 47 9.2 True x
11/3/1993 21:00    3.00 18.00 245 11.9 True x
11/10/1993 10:30    1.48 9.00 84.8 2.2 True x
11/10/1993 10:54    1.48 9.00 84.8 2.1 True x
11/22/1993 15:00    9.54 75.00 1413 288.8 True x
11/29/1993 13:00    10.60 88.00 1676 398.2 True x
12/8/1993 12:00    9.76 60.00 1464 238.0 True x
12/15/1993 11:00    3.35 27.00 287.9 21.4 True x
12/21/1993 10:25    2.60 16.00 198.2 9.0 True x
12/21/1993 10:56    2.60 16.00 198.2 8.8 True x
12/21/1993 12:00    2.68 18.00 207.3 10.4 True x
12/28/1993 15:00    2.10 -4 14.00 145 5.7 True x
1/7/1994 12:00    2.02 -4 15.00 137 5.9 True x
1/12/1994 12:00    2.00 -1 12.00 135 4.7 True x
1/25/1994 12:00    8.17 -1 319.00 1089 939.3 True x
2/4/1994 17:00    3.40 -1 54.00 294.2 43.5 True x
2/10/1994 15:00    2.07 -2 18.00 142 7.0 True x
2/16/1994 10:58    2.05 12.00 140 4.6 True x
2/16/1994 11:20    2.05 12.00 140 4.7 True x
2/17/1994 12:00    2.05 23.00 140 8.7 True x
2/25/1994 12:00    2.47 59.00 183.7 29.7 True x
3/1/1994 12:00    2.86 -1 51.00 228.3 31.8 True x
3/10/1994 14:00    2.40 17.00 176.2 8.5 True x
3/18/1994 08:00    2.86 19.00 228.3 12.1 True x
3/25/1994 12:00    1.52 10 40.00 88.3 9.7 True x
4/1/1994 10:00    1.95 35.00 129.8 12.3 True x
4/7/1994 12:00    2.70 26.00 209.6 15.2 True x
4/12/1994 12:00    18.54 385.00 6547 6,814.6 True x
4/19/1994 08:00    9.10 16 207.00 1312 733.9 True x
4/28/1994 08:00    5.25 16 1,186.00 550.5 1,763.9 True x
5/2/1994 08:00    19.50 211.00 7697 4,387.3 True x
5/17/1994 08:00    2.05 16 105.00 140 39.7 True x
5/20/1994 10:47    1.90 20 67.00 124.7 22.6 True x
5/20/1994 11:10    1.90  69.00 124.7 23.4 True x
6/1/1994 09:00    1.46 19 68.00 83.1 15.3 True x
6/7/1994 10:00    1.29 21 99.00 68.9 18.5 True x
6/16/1994 18:00    1.30 22 175.00 69.8 33.0 True x
6/20/1994 18:00    1.58 24 224.00 93.7 56.9 True x
6/25/1994 12:00    6.70 20 1,240.00 784.3 2,627.9 True x
7/5/1994 08:00    2.64 21 219.00 202.7 120.3 True x
7/6/1994 10:44    1.32 21 102.00 71.4 19.7 True x
7/6/1994 11:08    1.32 21 112.00 71.4 21.7 True x
7/11/1994 08:00    1.73 21 126.00 107.9 36.8 True x
7/15/1994 08:00    3.41 22 427.00 295.5 341.1 True x
7/22/1994 10:00    0.85 23 61.00 35.7 6.0 True x
8/9/1994 11:00    0.40 24 62.00 10.2 1.7 True x
8/15/1994 08:00    0.48 18 59.00 13.9 2.2 True x
8/22/1994 08:00    0.52 22 80.00 15.9 3.5 True x
8/30/1994 10:00    1.26 21 108.00 66.5 19.6 True x
9/6/1994 10:00    0.41 18 50.00 10.6 1.5 True x
9/12/1994 08:00    0.25 16 94.00 4.4 1.1 True x
9/24/1994 08:00    0.67 13 49.00 24.2 3.2 True x
9/27/1994 08:00    1.22 10 199.00 63.4 34.2 True x
10/6/1994 14:00    0.43 16 58.00 11.5 1.8 True x
10/10/1994 09:00    1.15 10 134.00 58 21.1 True x
10/13/1994 10:24    0.45 14 33.00 12.5 1.1 True x
10/13/1994 10:50    0.45  31.00 12.5 1.1 True x
10/21/1994 09:00    1.00 13 65.00 47 8.3 True x
10/27/1994 09:00    0.41 24.00 10.6 0.7 True x
11/2/1994 09:00    0.55 10 17.00 17.5 0.8 True x
11/7/1994 08:00    7.00 12 381.00 840 864.1 True x
11/10/1994 14:00    4.19 12 537.00 397.4 576.4 True x
11/15/1994 12:00    1.65 10 100.00 100.2 27.3 True x
11/28/1994 17:00    2.94 10 272.00 237.8 174.9 True x
12/9/1994 16:30    1.11 19.00 55 2.9 True x
12/14/1994 09:00    1.21 61.00 62.6 10.5 True x
12/19/1994 10:00    2.72 91.00 211.9 52.3 True x
1/4/1995 09:00    1.00 -1 8.00 47 1.1 True x
1/11/1995 14:00    1.28 22.00 68.1 4.1 True x
1/16/1995 09:00    8.51 478.00 1170 1,510.0 True x
1/25/1995 09:00    3.65 -1 79.00 326.1 69.9 True x
1/25/1995 10:39    3.60 74.00 319.7 64.0 True x
1/25/1995 11:06    3.58 76.00 317.1 65.7 True x
2/2/1995 08:00    3.50 70.00 307 58.3 True x
2/10/1995 09:00    3.40 58.00 294.2 46.3 True x
2/16/1995 09:00    3.15 47.00 263.1 33.8 True x
2/21/1995 12:00    2.20 16.00 155.2 7.0 True x
2/28/1995 12:00    4.31 689.00 413.8 769.9 True x
3/7/1995 17:00    9.91 2,350.00 1499 9,512.2 True x
3/16/1995 10:21    3.38 15 159.00 291.7 125.8 True x
3/16/1995 10:50    3.37 15 152.00 290.5 119.8 True x
3/17/1995 13:00    2.90 16 118.00 233 74.6 True x
3/21/1995 12:00    2.10 16 103.00 145 40.4 True x
3/28/1995 12:00    4.93 11 277.00 501.7 375.6 True x
4/6/1995 16:00    1.93 16 29.00 127.8 10.2 True x
4/13/1995 11:00    1.80 13 28.00 114.7 8.9 True x
4/18/1995 12:00    2.22 21 58.00 157.2 24.7 True x
4/24/1995 17:00    4.24 16 186.00 404.2 203.7 True x
5/3/1995 10:15    4.90 12 231.00 497.3 311.4 True x
5/3/1995 10:33    4.87 12 220.00 493 293.1 True x
5/3/1995 11:01    4.85 12 212.00 490.1 281.2 True x
5/11/1995 13:00    9.10 17 356.00 1312 1,261.5 True x
5/15/1995 09:00    10.10 19 190.00 1546 795.8 True x
5/22/1995 09:00    21.07 20 77.00 9681 2,021.4 True x
5/27/1995 11:00    13.69 19 105.00 2629 746.7 True x
6/7/1995 10:22    6.46 24 156.00 741.7 312.9 True x
6/7/1995 10:53    6.44 24 156.00 738.5 312.5 True x
6/9/1995 20:00    4.27 24 101.00 408.3 111.5 True x
6/19/1995 09:00    4.57 27 1,369.00 449.9 1,663.5 True x
6/26/1995 09:00    7.23 22 2,025.00 886.6 4,848.8 True x
7/3/1995 09:00    3.13 21 167.00 260.7 117.5 True x
7/12/1995 10:00    1.40 27 75.00 78 15.9 True x
7/18/1995 10:16    1.10 28 64.00 54.3 9.5 True x
7/18/1995 10:38    1.10 28 61.00 54.3 9.0 True x
7/19/1995 11:30    1.00 27 249.00 47 31.7 True x
7/26/1995 12:00    0.93 28 123.00 41.3 13.8 True x
8/6/1995 16:00    4.60 27 302.00 454.1 371.1 True x
8/12/1995 15:00    1.74 30 62.00 108.8 18.3 True x
8/18/1995 15:00    1.16 31 36.00 58.8 5.8 True x
8/25/1995 18:00    0.83 27 85.00 34.4 8.0 True x
9/2/1995 10:00    0.56 23 62.00 18 3.0 True x
9/6/1995 10:12    0.50 22 40.00 14.9 1.6 True x
9/6/1995 10:30    0.50 22 34.00 14.9 1.4 True x
9/9/1995 18:00    0.46 21 33.00 12.9 1.2 True x
9/15/1995 18:00    0.51 22 36.00 15.4 1.5 True x
9/22/1995 17:00    0.44 21 28.00 12 0.9 True x
9/29/1995 17:00    0.36 21 41.00 8.4 1.0 True x
10/6/1995 17:00    0.35 18 25.00 4.7 0.3 True x
10/14/1995 17:00    0.40 16 31.00 6.3 0.5 True x
10/19/1995 10:07    0.30 14 27.00 3.4 0.2 True x
10/24/1995 10:00    0.44 10 40.00 7.7 0.8 True x
10/30/1995 16:00    0.51 10 26.00 10.4 0.7 True x
11/4/1995 17:00    0.82 27.00 24.9 1.8 True x
11/14/1995 09:00    1.11 28.00 40.9 3.1 True x
11/21/1995 09:00    0.93 23.00 30.6 2.0 True x
11/28/1995 12:00    0.48 19.00 9.2 0.5 True x
12/5/1995 10:22    0.61 23.00 14.6 0.9 True x
12/12/1995 12:00    0.80 161.00 23.9 10.4 True x
12/20/1995 12:00    5.20 486.00 516.9 679.1 True x
12/24/1995 14:00    1.05 43.00 37.3 4.3 True x
1/1/1996 16:00    0.90 11.00 29 0.9 True x
1/17/1996 16:00    1.70 26.00 82.6 5.9 True x
1/23/1996 12:00    3.25 181.00 239.3 117.4 True x
2/13/1996 18:00    1.50 11 20.00 67.2 3.8 True x
2/15/1996 10:59    1.57 15.00 72.4 3.1 True x
2/15/1996 11:19    1.57 18.00 72.4 3.6 True x
2/18/1996 18:00    1.30  19.00 53 2.8 True x
2/26/1996 16:00    1.54  13.00 70.2 2.6 True x
3/4/1996 15:30    1.35  14.00 56.5 2.2 True x
3/11/1996 16:00    1.15  28.00 43.3 3.3 True x
3/18/1996 16:00    1.07  20.00 38.5 2.1 True x
3/25/1996 16:00    1.03  50.00 36.1 5.0 True x
3/26/1996 18:00    2.15  61.00 121.6 20.3 True x
4/1/1996 16:00    2.57  88.00 162.9 39.0 True x
4/2/1996 11:07    7.02 1,143.00 844 2,606.2 True x
4/2/1996 11:27    7.03 1,104.00 846 2,524.0 True x
4/11/1996 16:00    1.61  82.00 75.5 16.8 True x
4/16/1996 13:00    1.75  77.00 86.6 18.1 True x
4/24/1996 16:00    14.80  279.00 3140 2,373.5 True x
4/29/1996 14:00    18.80 16 852.00 6856 15,785.5 True x
5/6/1996 12:00    12.10 15 295.00 2080 1,657.6 True x
5/7/1996 10:24    11.53 16 253.00 1918 1,310.3 True x
5/7/1996 10:52    11.51 16 259.00 1913 1,338.7 True x
5/13/1996 09:00    10.90 10 182.00 1754 862.7 True x
5/20/1996 09:00    8.75 20 499.00 1228 1,656.3 True x
5/28/1996 17:30    7.65 21 1,559.00 974.4 4,104.1 True x
6/4/1996 20:00    4.75 22 621.00 445.8 748.0 True x
6/13/1996 16:00    7.05 25 1,634.00 850 3,751.3 True x
6/17/1996 15:00    3.45 27 217.00 263.9 154.7 True x
6/18/1996 10:16    3.59 25 250.00 281.6 190.4 True x
6/18/1996 10:38    3.59 25 239.00 281.6 182.3 True x
6/25/1996 16:00    1.75 30 118.00 86.6 27.8 True x
7/2/1996 16:00    1.65 25 40.00 78.6 8.7 True x
7/9/1996 16:00    1.60 27 47.00 74.7 9.5 True x
7/12/1996 20:00    1.45 25 76.00 63.5 13.2 True x
7/17/1996 16:00    1.40 26 104.00 59.9 16.9 True x
7/24/1996 17:00    1.30 27 73.00 53 10.6 True x
7/30/1996 17:00    1.90 25 83.00 99.2 22.4 True x
8/6/1996 17:00    1.55 25 27.00 70.9 5.2 True x
8/8/1996 10:26    1.02 26 38.00 35.5 3.7 True x
8/8/1996 10:58    1.02 26 35.00 35.5 3.4 True x
8/13/1996 19:00    1.05 26 22.00 37.3 2.3 True x
8/20/1996 19:00    1.00 26 39.00 34.4 3.7 True x
8/27/1996 10:00    1.05 25 60.00 37.3 6.1 True x
9/3/1996 10:00    1.00 25 57.00 34.4 5.4 True x
9/10/1996 12:00    0.90 25 37.00 29 3.0 True x
9/18/1996 10:21    1.26 17 60.00 50.4 8.2 True x
9/18/1996 10:41    1.26 17 61.00 50.4 8.4 True x
9/19/1996 10:00    0.85 17 55.00 26.4 3.9 True x
9/28/1996 10:00    1.90 15 92.00 99.2 24.9 True x
10/4/1996 10:00    1.14 14 22.00 42.7 2.6 True x
10/10/1996 10:00    0.62 13 20.00 15.1 0.8 True x
10/17/1996 10:00    1.05 14 47.00 37.3 4.8 True x
10/24/1996 10:00    2.35 14 65.00 140.7 25.1 True x
10/29/1996 10:00    1.10 15 126.00 40.3 13.7 True x
11/5/1996 10:22    0.89 14.00 28.5 1.1 True x
11/5/1996 10:41    0.89 16.00 28.5 1.3 True x
11/5/1996 17:00    0.75 13 94.00 21.2 5.4 True x
11/8/1996 10:00    6.30 12 614.00 706.4 1,172.5 True x
11/14/1996 17:00    1.81 37.00 91.6 9.2 True x
11/19/1996 17:00    1.43 32.00 62.1 5.5 True x
11/26/1996 10:00    8.35 497.00 1132 1,520.9 True x
12/3/1996 10:00    3.43 37.00 261.4 26.5 True x
12/11/1996 10:45    2.15 20.00 121.6 6.6 True x
12/18/1996 10:30    2.05 127.00 112.5 38.7 True x
12/23/1996 10:11    1.67 9.00 80.2 2.2 True x
12/23/1996 10:32    1.67 11.00 80.2 2.6 True x
12/26/1996 11:00    2.85 207.00 193.1 108.3 True x
1/2/1997 16:00    2.60 15.00 166.1 7.1 True x
1/7/1997 16:00    2.00 12.00 108 3.6 True x
1/18/1997 11:00    5.40 254.00 549.5 377.0 True x
1/23/1997 11:00    8.50 1,324.00 1167 4,174.1 True x
1/27/1997 13:45    10.85 317.00 1741 1,491.0 True x
2/3/1997 11:00    6.20 198.00 688.1 368.9 True x
2/10/1997 12:00    3.50 38.00 270.1 28.1 True x
2/11/1997 10:25    3.81 51.00 310.3 43.4 True x
2/11/1997 10:47    3.81 50.00 310.3 42.4 True x
2/17/1997 13:30    2.85 31.00 193.1 16.3 True x
2/22/1997 11:00    8.25 733.00 1108 2,193.0 True x
2/28/1997 10:00    16.55 412.00 4498 5,010.3 True x
3/8/1997 11:00    3.70 10 83.00 295.8 66.6 True x
3/10/1997 11:00    3.80 291.00 309 243.0 True x
3/15/1997 12:00    8.85 323.00 1253 1,093.3 True x
3/20/1997 10:10    7.69 100.00 982.9 266.6 True x
3/20/1997 10:39    7.69 240.00 982.9 639.3 True x
3/28/1997 14:30    3.05 18 74.00 215.7 43.2 True x
4/4/1997 11:30    2.35 16 48.00 140.7 18.6 True x
4/7/1997 10:00    4.20 14 155.00 364.1 152.6 True x
4/14/1997 09:00    2.35 10 36.00 140.7 13.8 True x
4/23/1997 10:00    4.05 13 156.00 342.9 144.8 True x
4/29/1997 12:00    2.35 16 48.00 140.7 18.3 True x
5/6/1997 10:24    2.29 12 37.00 134.9 13.8 True x
5/6/1997 10:42    2.28 12 37.00 133.9 13.7 True x
5/8/1997 12:00    2.05 16 77.00 112.5 23.5 True x
5/15/1997 10:00    1.70 17 59.00 82.6 13.2 True x
5/20/1997 10:00    1.50 18 23.00 67.2 4.3 True x
5/27/1997 11:00    3.40 18 270.00 257.6 188.2 True x
6/2/1997 08:30    4.75 17 292.00 445.8 351.9 True x
6/8/1997 10:00    5.35 18 1,132.00 541.3 1,655.7 True x
6/14/1997 11:00    6.75 20 2,607.00 791.3 5,570.0 True x
6/18/1997 10:07    3.79 21 285.00 307.7 237.1 True x
6/18/1997 10:31    3.76 21 278.00 303.7 228.0 True x
6/19/1997 10:00    3.00 25 173.00 210 98.4 True x
6/24/1997 10:00    2.25 25 157.00 131 55.6 True x
7/1/1997 20:00    2.50 26 148.00 155.7 62.4 True x
7/8/1997 10:00    1.10 29 167.00 40.3 18.2 True x
7/19/1997 10:00    0.85 30 84.00 26.4 6.0 True x
7/25/1997 10:00    0.90 30 40.00 29 3.2 True x
8/4/1997 10:00    0.95 28 53.00 31.7 4.6 True x
8/7/1997 10:13    0.94 21 45.00 31.1 3.8 True x
8/7/1997 10:32    0.94 21 44.00 31.1 3.7 True x
8/16/1997 20:00    1.75 27 84.00 86.6 19.8 True x
8/22/1997 10:00    2.85 26 235.00 193.1 123.0 True x
8/29/1997 10:00    3.00 25 328.00 210 186.1 True x
9/6/1997 14:00    1.00 25 146.00 34.4 13.6 True x
9/12/1997 10:00    1.25 24 53.00 49.7 7.2 True x
9/16/1997 10:18    0.90 22 36.00 29 2.9 True x
9/16/1997 10:39    0.90 22 37.00 29 2.9 True x
9/19/1997 11:00    0.90 23 61.00 29 4.8 True x
9/26/1997 10:00    0.95 21 39.00 31.7 3.3 True x
10/3/1997 10:00    0.80 20 50.00 8.4 1.2 True x
10/14/1997 11:00    0.99 16 32.00 17.4 1.5 True x
10/21/1997 12:30    0.82 14 62.00 9.2 1.6 True x
10/27/1997 10:30    1.83 10 87.00 78.2 18.4 True x
11/4/1997 17:00    1.85 50.00 79.9 10.9 True x
11/11/1997 11:00    1.23 11.00 31.6 1.0 True x
11/19/1997 11:00    1.02 13.00 19 0.7 True x
11/25/1997 11:00    1.04 8.00 20.1 0.5 True x
12/1/1997 14:00    1.32 11.00 37.7 1.1 True x
12/7/1997 14:00    1.21 9.00 30.3 0.8 True x
12/15/1997 11:00    1.10 12.00 23.5 0.8 True x
12/17/1997 10:26    1.26 7.00 33.6 0.6 True x
12/17/1997 10:43    1.26 6.00 33.6 0.6 True x
12/25/1997 11:00    5.53 493.00 571.5 761.2 True x
1/1/1998 11:00    2.72 28.00 169.2 13.1 True x
1/7/1998 11:00    3.11 10 194.00 215.9 113.6 True x
1/16/1998 12:00    3.23 47.00 224.6 28.5 True x
1/20/1998 10:31    1.99 24.00 87.5 5.7 True x
1/20/1998 10:53    1.99 17.00 87.5 4.1 True x
1/22/1998 17:00    2.08  61.00 95.9 15.9 True x
1/29/1998 17:00    2.62  43.00 151.5 18.0 True x
2/5/1998 11:00    1.65  45.00 58.5 7.2 True x
2/12/1998 11:00    2.40  53.00 127.7 18.4 True x
2/19/1998 10:00    9.35  517.00 1402 1,960.4 True x
2/28/1998 10:30    4.40 10 184.00 391.4 195.1 True x
3/4/1998 10:29    2.82 45.00 174.3 21.4 True x
3/4/1998 10:52    2.82 44.00 174.3 20.8 True x
3/9/1998 12:00    8.85 817.00 1281 2,827.5 True x
3/21/1998 10:00    16.62 282.00 4565 3,476.6 True x
3/30/1998 10:00    10.25 18 376.00 1630 1,657.6 True x
4/6/1998 10:00    3.85 16 86.00 308.9 72.3 True x
4/13/1998 10:00    2.82 15 42.00 174.3 20.1 True x
4/17/1998 08:00    11.11 13 364.00 1859 1,830.4 True x
4/21/1998 10:35    10.83 14 76.00 1784 370.3 True x
4/21/1998 10:54    10.74 14 118.00 1759 562.5 True x
4/24/1998 10:00    3.47 14 132.00 256.1 91.6 True x
5/2/1998 12:00    5.13 15 187.00 511.2 259.2 True x
5/10/1998 17:00    2.80 21 74.00 172 34.7 True x
5/26/1998 09:00    10.16 21 213.00 1607 927.0 True x
6/1/1998 09:00    10.80 20 743.00 1775 3,563.9 True x
6/2/1998 10:33    2.06 24 139.00 94 35.4 True x
6/2/1998 10:51    2.06 24 64.00 94 16.4 True x
6/9/1998 09:00    8.82 18 295.00 1273 1,014.0 True x
6/23/1998 17:00    10.25 28 239.00 1630 1,055.7 True x
7/4/1998 13:30    3.45 25 256.00 253.4 175.3 True x
7/15/1998 08:00    2.15 23 88.00 102.6 24.5 True x
7/31/1998 08:00    7.95 22 1,187.00 1072 3,437.4 True x
8/6/1998 08:00    8.56 23 870.00 1212 2,847.1 True x
8/10/1998 10:22    10.77 25 91.00 1767 434.5 True x
8/10/1998 10:41    10.72 25 90.00 1754 430.0 True x
8/15/1998 13:30    3.89 25 154.00 314.7 131.2 True x
8/20/1998 08:00    2.50 25 84.00 138.4 31.6 True x
8/27/1998 08:00    1.68 25 60.00 60.9 9.9 True x
9/4/1998 08:00    1.64 23 50.00 57.7 7.9 True x
9/11/1998 08:00    1.14 22 118.00 23.5 7.5 True x
9/23/1998 09:00    1.17 20 107.00 25.2 7.3 True x
9/30/1998 09:00    1.33 20 56.00 35.2 5.4 True x
10/7/1998 09:30    1.86 18 115.00 75.9 23.6 True x
10/14/1998 09:00    1.70 16 40.00 62.5 6.8 True x
10/20/1998 08:30    1.45 14 49.00 43.4 5.8 True x
10/21/1998 10:36    1.25 15 28.00 30.1 2.3 True x
10/21/1998 10:56    1.25 15 29.00 30.1 2.4 True x
11/8/1998 15:00    1.85 29.00 75 6.0 True x
11/17/1998 08:00    1.61 10 17.00 55.3 2.6 True x
11/25/1998 08:00    1.49 17.00 46.3 2.2 True x
12/1/1998 08:00    1.68 12 97.00 60.9 16.1 True x
12/7/1998 08:00    1.82 14 186.00 72.5 36.5 True x
12/14/1998 09:00    1.56 10.00 51.5 1.5 True x
12/14/1998 10:34    1.56 12.00 51.5 1.8 True x
12/14/1998 10:54    1.56 15.00 51.5 2.1 True x
12/21/1998 09:00    1.53 123.00 49.2 16.5 True x
12/28/1998 09:00    1.43 108.00 42 12.3 True x
1/20/1999 09:00    10.21 548.00 1620 2,397.6 True x
1/24/1999 14:00    10.88 150.00 1797 728.8 True x
2/2/1999 09:00    11.05 158.00 1843 787.6 True x
2/7/1999 14:00    12.15 681.00 2151 3,955.6 True x
2/9/1999 11:00    17.74 275.00 5662 4,218.4 True x
2/9/1999 11:28    17.76 249.00 5683 3,827.0 True x
2/12/1999 12:00    14.95 137.00 3222 1,199.3 True x
2/20/1999 13:00    3.57 54.00 269.6 39.6 True x
2/28/1999 18:00    5.96 419.00 660.9 748.2 True x
3/10/1999 08:00    8.57 401.00 1214 1,316.3 True x
3/15/1999 16:00    3.67 61.00 283.4 47.4 True x
3/21/1999 10:00    2.75 48.00 166.2 21.9 True x
3/24/1999 10:28    7.73 440.00 1023 1,216.4 True x
3/24/1999 10:57    7.74 424.00 1025 1,173.7 True x
3/27/1999 11:00    3.75 89.00 294.7 71.4 True x
4/2/1999 09:00    4.20 12 200.00 360.6 195.1 True x
4/7/1999 09:30    7.56 17 803.00 986.1 2,139.7 True x
4/17/1999 12:00    7.00 10 434.00 867 1,018.1 True x
4/29/1999 09:30    4.05 15 199.00 338.1 182.5 True x
5/11/1999 09:00    2.99 20 72.00 194.6 38.1 True x
5/11/1999 10:11    2.96 20 96.00 191 49.9 True x
5/11/1999 10:51    2.95 20 95.00 189.8 49.1 True x
5/17/1999 09:00    6.15 20 176.00 697 331.4 True x
5/24/1999 09:00    2.45 21 42.00 133 15.3 True x
6/8/1999 10:14    2.54 26 176.00 142.7 68.1 True x
6/8/1999 10:39    2.52 26 171.00 140.5 65.2 True x
6/21/1999 19:00    1.90 23 76.00 79.4 16.4 True x
7/9/1999 13:00    4.85 28 434.00 463.9 544.0 True x
7/16/1999 19:00    2.20 28 75.00 107.4 21.9 True x
7/20/1999 10:18    1.16 28 93.00 24.6 6.2 True x
7/20/1999 10:41    1.16  63.00 24.6 4.2 True x
7/23/1999 19:30    0.95 28 96.00 13.6 3.5 True x
7/30/1999 19:30    0.90 28 46.00 11.3 1.4 True x
8/9/1999 20:30    1.66 23 83.00 59.3 13.3 True x
8/16/1999 19:30    0.64 25 33.00 2.4 0.2 True x
8/23/1999 19:00    0.58 25 33.00 1.4 0.1 True x
8/30/1999 18:30    0.64 25 169.00 2.4 1.1 True x
9/7/1999 18:30    0.45 25 276.00 0.1 0.0 True x
9/17/1999 09:30    0.25 18 197.00 0.0 True x
9/24/1999 18:00    0.40 19 43.00 0.0 True x
10/1/1999 18:00    0.80 16 40.00 27.2 3.0 True x
10/11/1999 14:30    1.00 19 43.00 40.2 4.7 True x
10/15/1999 10:16    0.54 15 31.00 13.7 1.2 True x
10/18/1999 16:15    0.42 14 40.00 8.7 1.0 True x
10/25/1999 18:15    0.38 13 17.00 7.2 0.3 True x
11/2/1999 20:30    0.80 21.00 27.2 1.6 True x
11/7/1999 15:30    0.92 16 24.00 34.8 2.3 True x
11/14/1999 20:30    0.82 14 21.00 28.4 1.7 True x
11/22/1999 20:35    0.85 10 26.00 30.3 2.2 True x
11/29/1999 19:30    0.82 16.00 28.4 1.3 True x
12/6/1999 14:10    1.12 10 28.00 48.5 3.8 True x
12/7/1999 10:22    1.24 25.00 57.5 3.9 True x
12/13/1999 19:00    0.85 9.00 30.3 0.7 True x
12/20/1999 19:00    0.55 14.00 14.1 0.5 True x
12/31/1999 15:00    0.55 13.00 14.1 0.5 True x
1/4/2000 19:00    2.10 61.00 138.1 22.8 True x
1/7/2000 20:00    0.65 10.00 19 0.5 True x
1/12/2000 20:30    0.65 20.00 19 1.0 True x
1/19/2000 10:16    0.71 8.00 22.1 0.5 True x
1/19/2000 10:29    0.71  9.00 22.1 0.6 True x
1/22/2000 14:00    0.60 10.00 16.5 0.4 True x
1/29/2000 19:30    0.86 8.00 30.9 0.8 True x
2/8/2000 18:00    0.95 9.00 36.8 1.0 True x
2/15/2000 19:30    0.90 31.00 33.5 2.9 True x
2/19/2000 17:15    6.85 1,297.00 895.5 3,136.5 True x
2/27/2000 16:00    1.55 106.00 83.3 23.9 True x
3/4/2000 13:00    0.95 84.00 36.8 8.4 True x
3/12/2000 18:00    1.10 62.00 47.1 8.0 True x
3/22/2000 18:00    2.12 113.00 140.3 42.8 True x
3/28/2000 18:00    1.05 11 105.00 43.6 12.5 True x
4/3/2000 11:30    0.90 13 71.00 33.5 6.4 True x
4/8/2000 14:00    2.55 13 159.00 190.7 81.9 True x
4/11/2000 10:35    0.94 14 23.00 36.1 2.3 True x
4/14/2000 18:30    1.45 16 81.00 74.6 16.3 True x
4/20/2000 19:00    1.15 17 104.00 50.7 14.3 True x
4/29/2000 19:30    1.10 22 87.00 47.1 11.1 True x
5/10/2000 20:30    2.25 20 187.00 154.9 78.3 True x
5/15/2000 19:30    1.15 20 115.00 50.7 15.8 True x
5/20/2000 10:00    0.60 18 99.00 16.5 4.4 True x
5/25/2000 10:22    1.48 22 123.00 77.2 25.8 True x
5/25/2000 10:39    1.48  118.00 77.2 24.7 True x
5/30/2000 18:00    6.85 21 299.00 895.5 723.9 True x
6/5/2000 19:00    1.10 20 183.00 47.1 23.3 True x
6/13/2000 21:00    1.40 25 393.00 70.4 74.7 True x
6/18/2000 15:00    9.46 20 438.00 1462 1,731.2 True x
6/25/2000 15:00    10.05 23 444.00 1603 1,924.0 True x
7/6/2000 21:00    2.40 26 119.00 172.4 55.7 True x
7/10/2000 09:58    1.43 27 82.00 72.9 16.2 True x
7/10/2000 10:15    1.43  58.00 72.9 11.4 True x
7/15/2000 18:00    5.35 33 181.00 615.3 302.3 True x
7/23/2000 15:30    13.20 24 47.00 2460 315.8 True x
7/29/2000 12:20    7.61 20 858.00 1051 2,437.4 True x
8/9/2000 20:30    8.13 25 334.00 1162 1,049.7 True x
8/17/2000 10:04    1.62 27 40.00 89.7 9.8 True x
8/17/2000 10:19    1.62  39.00 89.7 9.6 True x
8/20/2000 18:00    7.85 22 219.00 1101 652.8 True x
8/27/2000 13:30    7.71 25 346.00 1072 1,003.3 True x
9/3/2000 13:30    2.10 30 146.00 138.1 54.7 True x
9/12/2000 19:00    4.70 23 799.00 505.4 1,090.6 True x
9/25/2000 18:30    1.91 14 220.00 117.9 70.2 True x
10/2/2000 09:42    2.06 17 39.00 104.8 11.2 True x
10/2/2000 10:00    2.06  37.00 104.8 10.7 True x
10/2/2000 18:30    2.05 17 127.00 104 35.7 True x
10/7/2000 15:00    7.70 13 583.00 1070 1,686.5 True x
10/17/2000 18:00    6.67 19 762.00 836.9 1,723.5 True x
10/29/2000 17:00    1.45 17 23.00 61.8 3.9 True x
11/5/2000 14:30    1.45 15 7.00 61.8 1.3 True x
11/6/2000 10:08    1.76 13 12.00 82.3 2.9 True x
11/6/2000 10:24    1.76  12.00 82.3 2.9 True x
11/12/2000 16:15    10.80  145.00 1788 702.8 True x
11/19/2000 16:00    3.40  33.00 243.1 22.1 True x
11/26/2000 16:00    7.85  772.00 1101 2,295.8 True x
1/13/2001 16:55    2.36 41.00 129.8 14.5 True x
1/21/2001 16:30    3.90 64.00 312.8 54.7 True x
2/1/2001 17:30    9.25 10 434.00 1413 1,658.3 True x
2/5/2001 10:05    4.06 83.00 337.1 76.4 True x
2/5/2001 10:22    4.06  89.00 337.1 81.5 True x
2/10/2001 15:00    8.60  1,289.00 1265 4,404.9 True x
2/18/2001 13:15    7.80  152.00 1091 449.8 True x
2/25/2001 17:00    7.75  1,980.00 1080 5,775.8 True x
2/28/2001 18:00    10.30  249.00 1664 1,121.7 True x
3/4/2001 14:00    3.55  71.00 263 50.5 True x
3/11/2001 16:00    2.35  27.00 128.9 9.4 True x
3/17/2001 17:30    4.65  194.00 433.7 228.1 True x
3/20/2001 10:47    2.91 42.00 183.5 21.1 True x
3/20/2001 11:03    2.91  41.00 183.5 20.6 True x
4/1/2001 14:00    1.75  62.00 81.6 13.9 True x
4/8/2001 14:00    2.30  57.00 124.6 19.4 True x
4/15/2001 16:00    7.35  597.00 992.1 1,599.5 True x
4/20/2001 19:30    2.05  58.00 104 16.4 True x
4/27/2001 19:00    1.60  75.00 71.4 14.5 True x
5/6/2001 13:15    1.35  77.00 55.8 11.7 True x
5/9/2001 10:18    1.46 20 73.00 62.4 12.3 True x
5/9/2001 10:36    1.46  77.00 62.4 13.1 True x
5/12/2001 17:00    1.05 23 86.00 39.6 9.2 True x
5/19/2001 20:15    4.30 22 625.00 375.4 634.3 True x
5/30/2001 18:20    1.05  61.00 39.6 6.6 True x
6/4/2001 18:45    3.25 18 132.00 223.9 80.2 True x
6/11/2001 19:30    2.35 23 93.00 128.9 32.7 True x
6/17/2001 18:00    1.20 28 57.00 47.4 7.3 True x
6/20/2001 10:44    0.91 26 70.00 33 6.3 True x
6/20/2001 11:03    0.91  40.00 33 3.6 True x
6/24/2001 16:30    1.15 25 82.00 44.7 10.0 True x
6/30/2001 18:30    1.05 26 222.00 39.6 23.7 True x
7/7/2001 18:30    0.85 27 116.00 30.3 9.6 True x
7/14/2001 09:00    0.45 27 53.00 14.8 2.1 True x
7/22/2001 16:00    2.20 28 151.00 116.1 47.6 True x
7/25/2001 10:06    4.63 26 529.00 430.4 615.8 True x
7/25/2001 10:25    4.59  498.00 423.7 570.3 True x
7/29/2001 15:40    0.95 28 43.00 34.8 4.0 True x
8/5/2001 16:00    0.85 28 108.00 30.3 8.9 True x
8/12/2001 16:30    0.70 28 106.00 24.1 6.9 True x
8/18/2001 15:00    0.35 28 63.00 11.5 2.0 True x
8/27/2001 19:00    2.95 28 108.00 188 55.1 True x
9/2/2001 16:00    1.60 24 54.00 71.4 10.4 True x
9/10/2001 10:01    3.39 22 231.00 241.8 151.4 True x
9/10/2001 10:17    3.38  221.00 240.5 143.8 True x
9/16/2001 16:00    0.10 23 49.00 2.1 0.3 True x
9/23/2001 16:00    0.40 24 43.00 13.1 1.6 True x
9/30/2001 16:00    0.45 28 88.00 14.8 3.5 True x
10/8/2001 18:30    0.40 15 25.00 13.1 0.9 True x
10/14/2001 18:30    6.40 16 676.00 777.4 1,419.2 True x
10/18/2001 18:30    3.45 16 101.00 249.6 68.6 True x
10/25/2001 10:45    2.37 14 87.00 130.6 30.9 True x
10/25/2001 11:01    2.42  91.00 135.1 33.5 True x
10/25/2001 16:35    3.23 16 108.00 221.4 64.7 True x
10/25/2001 16:39    3.23 14 118.00 221.4 70.6 True x
11/3/2001 15:00    1.02 15 122.00 38.1 12.6 True x
11/9/2001 12:30    0.74 12 24.00 25.7 1.7 True x
11/19/2001 13:00    0.67 14 41.00 22.9 2.6 True x
11/23/2001 13:30    0.68 11 10.00 23.3 0.7 True x
12/1/2001 13:25    8.15 453.00 1166 1,427.6 True x
12/5/2001 09:55    2.77 11 89.00 168.1 40.5 True x
12/5/2001 10:22    2.76  84.00 167 38.0 True x
12/15/2001 11:30    7.87 535.00 1106 1,598.8 True x
12/22/2001 12:30    11.40 90.00 1941 476.3 True x
1/13/2002 12:00    1.40 11.00 58.8 1.9 True x
1/17/2002 10:11    1.26 8.00 50.7 1.1 True x
1/17/2002 10:31    1.26  6.00 50.7 0.9 True x
1/26/2002 13:00    1.84 13.00 88 3.3 True x
2/2/2002 12:00    12.05 171.00 2122 982.8 True x
2/16/2002 11:45    2.14 14.00 111.2 4.4 True x
3/6/2002 09:57    3.63 115.00 274 85.2 True x
3/6/2002 10:21    3.62  116.00 272.6 86.1 True x
3/24/2002 13:30    3.56 160.00 264.4 114.7 True x
3/30/2002 10:00    9.53 266.00 1479 1,065.9 True x
4/9/2002 17:30    6.69 14 368.00 841.3 836.4 True x
4/17/2002 09:56    3.57 21 121.00 265.8 86.9 True x
4/17/2002 10:21    3.56  122.00 264.4 87.7 True x
4/20/2002 17:30    3.43 20 129.00 247 86.5 True x
5/13/2002 18:30    16.25 17 55.00 4232 637.8 True x
6/1/2002 09:30    2.26 24 86.00 121.2 28.3 True x
6/19/2002 18:00    1.54 25 52.00 67.5 9.6 True x
7/7/2002 18:00    0.73 28 32.00 25.3 2.2 True x
7/17/2002 10:15    0.63 26 45.00 21.5 2.7 True x
7/17/2002 10:35    0.63  44.00 21.5 2.6 True x
7/17/2002 20:00    0.62 26 31.00 21.1 1.8 True x
8/21/2002 09:59    5.24 24 622.00 538.5 904.6 True x
8/21/2002 10:25    5.24  617.00 538.5 897.2 True x
8/24/2002 16:00    1.20 28 89.00 47.4 11.4 True x
8/28/2002 10:41    0.97 25 67.00 35.7 6.5 True x
9/1/2002 10:00    0.54 27 45.00 18.2 2.2 True x
9/25/2002 10:16    0.83 18 68.00 29.4 5.5 True x
10/9/2002 10:21    0.39 16 24.00 12.77 0.8 True x
10/9/2002 10:41    0.39  25.00 12.77 0.9 True x
10/17/2002 12:24    0.33 12 14.00 10.9 0.4 True x
10/24/2002 11:47    0.38 12 21.00 12.45 0.7 True x
10/29/2002 10:15    3.39 11 321.00 241.8 209.6 True x
11/7/2002 11:11    1.79 30.00 84.42 7.1 True x
11/21/2002 14:39    0.79 14.00 27.73 1.0 True x
11/25/2002 09:58    0.66 12.00 22.57 0.7 True x
12/11/2002 16:44    0.74 7.00 25.68 0.5 True x
12/18/2002 10:58    0.72 8.00 24.89 0.6 True x
12/30/2002 09:46    1.11 10.00 42.62 1.2 True x
1/15/2003 11:28    1.03 10.00 38.61 1.1 True x
2/13/2003 11:26    0.81 8.00 28.57 0.6 True x
2/20/2003 13:18    6.14 574.00 720 1,117.2 True x
3/7/2003 15:06    2.69 21.00 160.2 9.5 True x
3/13/2003 09:29    4.58 10 278.00 422.1 317.2 True x
3/19/2003 10:01    2.84 13 148.00 175.7 70.4 True x
3/26/2003 09:52    2.78 13 90.00 169.2 41.5 True x
4/3/2003 10:23    1.92 16 67.00 93.97 17.1 True x
4/3/2003 10:43    1.91  65.00 93.22 16.5 True x
4/14/2003 09:34    1.56 16 59.00 68.75 11.1 True x
4/24/2003 10:22    2.04 14 84.00 103.2 23.6 True x
4/28/2003 10:16    4.07 16 246.00 338.7 225.8 True x
5/13/2003 09:39    10.31 18 287.00 1666 1,293.2 True x
5/21/2003 11:06    2.19 19 84.00 115.3 26.3 True x
5/21/2003 11:29    2.19  82.00 115.3 25.7 True x
5/27/2003 10:01    4.33 17 204.00 380.3 210.2 True x
6/19/2003 10:03    8.15 24 108.00 1166 341.4 True x
6/19/2003 10:26    8.04 24 99.00 1142 307.6 True x
6/25/2003 09:49    1.68 23 41.00 76.73 8.5 True x
7/10/2003 10:01    1.19 28 48.00 46.83 6.1 True x
7/14/2003 09:39    1.08 26 55.00 41.09 6.2 True x
7/23/2003 12:28    1.97 25 81.00 97.77 21.6 True x
7/29/2003 10:06    0.81 25 41.00 28.57 3.2 True x
8/7/2003 10:45    5.20 24 194.00 531 279.2 True x
8/7/2003 11:06    5.11  187.00 514.4 259.8 True x
8/13/2003 09:26    0.86 24 40.00 30.72 3.4 True x
8/27/2003 09:58    0.42 26 46.00 13.77 1.7 True x
9/15/2003 09:28    0.63 20 25.00 21.45 1.4 True x
9/23/2003 13:52    0.47 20 16.00 15.53 0.7 True x
9/29/2003 09:47    2.49 15 97.00 141.4 37.3 True x
10/16/2003 11:36    1.22 15 35.00 48.5 4.6 True x
10/29/2003 10:19    0.68 11 17.00 23.3 1.1 True x
11/5/2003 10:38    0.89 15 14.00 32.1 1.2 True x
11/18/2003 10:04    9.65 15 1,045.00 1507 4,255.7 True x
11/24/2003 10:16    10.66 10 86.00 1753 409.8 True x
12/17/2003 12:01    1.61 10.00 72 2.1 True x
12/29/2003 10:32    5.86 383.00 660.7 684.7 True x
1/14/2004 09:59    2.96 40.00 189.2 20.8 True x
2/4/2004 10:19    5.73 70.00 634.1 120.6 True x
2/4/2004 10:36    5.69  76.00 626 129.8 True x
2/11/2004 11:05    5.34 214.00 557.4 323.2 True x
2/19/2004 10:08    3.06 35.00 200.8 19.1 True x
2/25/2004 10:20    3.37 59.00 239.2 38.4 True x
3/3/2004 10:12    2.27 11 40.00 122 13.3 True x
3/3/2004 10:34    2.27  44.00 122 14.7 True x
3/11/2004 09:41    3.41 10 94.00 244.4 62.4 True x
3/25/2004 10:57    1.72 18 19.00 79.5 4.3 True x
3/29/2004 10:06    7.51 21 529.00 1030 1,472.0 True x
4/8/2004 10:53    2.22 22 46.00 117.8 14.9 True x
4/14/2004 09:44    1.75 11 16.00 81.6 3.5 True x
4/21/2004 10:40    1.33 19 43.00 54.6 6.5 True x
4/21/2004 10:54    1.33  39.00 54.6 5.8 True x
4/28/2004 10:08    1.44 15 39.00 61.2 6.5 True x
5/11/2004 09:45    1.28 22 60.00 51.8 8.5 True x
5/27/2004 10:04    9.57 19 547.00 1488 2,201.1 True x
6/2/2004 10:33    14.38 21 41.00 2926 331.6 True x
6/2/2004 11:09    14.33  74.00 2904 580.6 True x
6/10/2004 10:28    3.86 23 626.00 306.9 518.9 True x
6/14/2004 09:41    1.84 25 80.00 88 19.1 True x
6/28/2004 10:12    0.86 22 51.00 30.7 4.3 True x
7/8/2004 09:44    7.67 23 379.00 1063 1,088.0 True x
7/14/2004 09:34    1.04 27 49.00 39.1 5.3 True x
7/28/2004 10:15    0.99 21 159.00 36.7 15.8 True x
8/5/2004 09:51    1.93 24 61.00 94.7 15.7 True x
8/12/2004 09:34    0.71 21 42.00 24.5 2.8 True x
8/19/2004 10:09    0.47 23 24.00 15.5 1.0 True x
8/19/2004 10:22    0.47  24.00 15.5 1.0 True x
8/30/2004 10:01    6.47 21 350.00 793.2 750.4 True x
9/14/2004 09:29    0.43 21 47.00 14.1 1.8 True x
9/28/2004 10:14    0.27 18 24.00 9.2 0.6 True x
10/6/2004 13:43    0.30 15 11.00 9.3 0.3 True x
10/27/2004 09:51    2.52 17 126.00 178 60.6 True x
11/4/2004 10:00    6.40 13 167.00 834 378.2 True x
11/4/2004 10:27    6.39  183.00 832 412.8 True x
11/10/2004 09:55    1.68 10 38.00 88.3 9.1 True x
11/19/2004 11:35    2.25 12 56.00 145 22.2 True x
11/29/2004 09:58    10.20 106.00 1680 483.5 True x
12/14/2004 10:21    5.60 58.00 682 108.2 True x
12/28/2004 10:18    1.52 8.00 75.2 1.6 True x
1/7/2005 10:02    22.69 117.00 11600 3,669.5 True x
1/12/2005 10:14    10.41 98.00 1730 458.8 True x
1/20/2005 09:54    4.79 74.00 522 105.5 True x
1/26/2005 10:04    3.18 27.00 262 19.7 True x
2/9/2005 13:55    7.01 599.00 954 1,543.5 True x
2/9/2005 14:11    7.01  592.00 954 1,527.2 True x
2/24/2005 09:52    2.82 27.00 214 16.0 True x
2/28/2005 09:56    2.49 22.00 174 10.3 True x
3/17/2005 10:12    1.69 10.00 89.2 2.4 True x
3/17/2005 10:23    1.69  10.00 89.2 2.6 True x
3/24/2005 09:50    7.02 241.00 956 624.6 True x
3/29/2005 10:07    3.44 11 62.00 299 50.7 True x
4/7/2005 09:42    1.91 16 39.00 109 11.7 True x
4/20/2005 09:46    1.43 19 40.00 67.8 7.4 True x
4/20/2005 10:01    1.43  38.00 67.8 7.1 True x
4/27/2005 10:08    2.51 13 65.00 177 31.3 True x
5/11/2005 09:48    2.29 21 142.00 150 57.6 True x
5/19/2005 09:44    1.17 20 72.00 48.6 9.6 True x
5/25/2005 10:36    1.09 20 77.00 43.4 9.1 True x
6/8/2005 13:47    0.63 28 49.00 20.1 2.7 True x
6/8/2005 13:58    0.63  44.00 20.1 2.4 True x
6/23/2005 10:07    0.49 26 68.00 14.9 2.8 True x
6/28/2005 09:54    0.37 27 60.00 11.2 1.8 True x
7/15/2005 10:24    2.16 24 122.00 135 44.5 True x
7/20/2005 13:21    1.69 28 88.00 89.2 21.2 True x
7/20/2005 13:32    1.69  51.00 89.2 12.5 True x
7/27/2005 10:07    0.36 27 50.00 10.9 1.5 True x
8/3/2005 09:51    0.27 26 36.00 8.5 0.8 True x
8/18/2005 09:56    1.36 24 103.00 62.3 17.4 True x
8/29/2005 10:12    1.59 24 109.00 80.8 23.9 True x
9/8/2005 13:46    0.20 25 114.00 6.9 2.1 True x
9/22/2005 09:54    6.41 22 171.00 836 386.9 True x
9/28/2005 10:19    5.71 21 133.00 702 253.3 True x
10/14/2005 14:26    0.48 18 38.00 14.6 1.5 True x
10/20/2005 09:51    0.28 15 14.00 8.7 0.4 True x
10/26/2005 10:12    0.53 10 11.00 16.3 0.5 True x
11/17/2005 09:49    2.56 49.00 182 24.5 True x
11/17/2005 10:01    2.56  44.00 182 22.0 True x
11/28/2005 10:02    7.52 12 1,743.00 1060 4,988.8 True x
12/14/2005 10:07    1.33 12.00 60 2.0 True x
1/5/2006 14:46    1.98 74.00 116 23.3 True x
1/10/2006 09:48    1.28 15.00 56.3 2.3 True x
1/10/2006 10:05    1.28  12.00 56.3 1.9 True x
1/25/2006 09:48    1.64 13.00 84.9 3.0 True x
1/30/2006 09:53    6.17 704.00 789 1,500.3 True x
2/9/2006 09:51    1.43 15.00 67.8 2.8 True x
2/15/2006 13:44    1.31 12.00 58.5 1.9 True x
2/15/2006 13:54    1.31  13.00 58.5 2.1 True x
2/27/2006 10:03    1.14 12.00 46.6 1.6 True x
3/7/2006 09:57    1.22 17.00 52 2.4 True x
3/16/2006 09:59    7.82 12 193.00 1120 583.8 True x
3/29/2006 10:05    2.68 60.00 197 32.4 True x
4/5/2006 10:06    3.98 12 214.00 381 220.4 True x
4/5/2006 10:20    3.98  210.00 381 216.8 True x
4/19/2006 10:03    1.42 19 66.00 67 12.0 True x
4/27/2006 10:18    0.96 15 38.00 35.8 3.8 True x
5/18/2006 09:52    1.87 15 57.00 105 16.4 True x
5/18/2006 10:06    1.87  58.00 105 16.7 True x
5/25/2006 10:03    1.02 22 58.00 39.2 6.1 True x
5/30/2006 10:13    0.92 25 59.00 33.6 5.4 True x
6/19/2006 13:51    0.99 27 155.00 37.4 15.7 True x
6/19/2006 14:00    0.99  66.00 37.4 6.7 True x
7/6/2006 09:53    0.31 25 64.00 9.5 1.6 True x
7/18/2006 09:58    0.26 27 46.00 8.2 1.0 True x
7/31/2006 10:11    0.62 28 69.00 19.7 3.7 True x
8/17/2006 09:50    0.39 25 44.00 11.8 1.4 True x
8/29/2006 10:03    0.39 24 48.00 11.8 1.5 True x
9/14/2006 14:11    0.05 21 31.00 0.3 True x
9/27/2006 10:16    0.19 18 60.00 6.6 1.1 True x
10/5/2006 10:06    0.10 19 28.00 8.3 0.6 True x
10/18/2006 13:44    1.96 14 49.00 159 21.5 True x
10/18/2006 13:55    1.96  42.00 159 18.2 True x
10/30/2006 10:02    1.85 11 81.00 145 31.9 True x
11/28/2006 10:17    0.34 10 31.00 16.8 1.4 True x
12/5/2006 10:03    3.17 76.00 341 70.3 True x
12/5/2006 10:18    3.15  64.00 338 58.6 True x
12/15/2006 10:04    1.01 20.00 57.7 3.2 True x
12/27/2006 10:21    1.38 63.00 91.3 15.7 True x
1/9/2007 10:20    2.50 61.00 240 39.7 True x
1/9/2007 10:33    2.50  64.00 240 41.6 True x
1/19/2007 10:00    10.67 86.00 2130 500.1 True x
1/31/2007 10:43    1.48 20.00 102 5.6 True x
2/22/2007 14:00    7.00 400.00 1150 1,242.5 True x
2/22/2007 14:12    7.00  382.00 1150 1,188.8 True x
2/28/2007 10:16    9.07 301.00 1690 1,373.5 True x
3/8/2007 10:02    1.97 51.00 161 22.2 True x
3/15/2007 10:23    1.51 13 37.00 105 10.8 True x
3/28/2007 10:23    2.07 19 75.00 174 35.6 True x
4/5/2007 10:26    4.62 12 536.00 612 885.7 True x
4/5/2007 10:40    4.63  493.00 614 818.6 True x
4/12/2007 10:11    2.49 10 71.00 238 45.6 True x
4/26/2007 10:04    2.82 20 76.00 287 58.9 True x
4/30/2007 09:22    1.90 20 76.00 151 31.1 True x
5/14/2007 13:23    2.17 23 120.00 189 61.5 True x
5/14/2007 13:36    2.16  107.00 187 54.1 True x
5/24/2007 10:17    0.98 22 67.00 55.3 10.1 True x
5/31/2007 10:15    1.42 22 241.00 95.5 62.2 True x
6/13/2007 09:56    0.53 24 63.00 25.9 4.4 True x
6/20/2007 13:47    0.31 27 53.00 15.6 2.3 True x
6/27/2007 09:19    1.22 25 141.00 75.8 29.0 True x
7/5/2007 10:07    0.52 25 74.00 25.3 5.1 True x
7/19/2007 11:47    0.24 27 51.00 12.9 1.8 True x
7/25/2007 13:58    0.44 26 66.00 21.3 3.8 True x
7/30/2007 10:19    0.20 25 42.00 11.4 1.3 True x
8/23/2007 09:58    0.17 27 42.00 10.4 1.2 True x
8/30/2007 10:20    0.09 26 42.00 0.9 True x
9/19/2007 13:53    0.05 23 41.00 6.9 0.8 True x
10/1/2007 10:24    -0.07 21 29.00 4.1 0.3 True x
10/11/2007 11:41    0.02 16 28.00 6.1 0.5 True x
10/30/2007 10:08    0.17 10 14.00 10.4 0.4 True x
11/6/2007 10:16    -0.10 11.00 3.5 0.1 True x
11/29/2007 10:19    0.38 11.00 18.5 0.6 True x
1/9/2008 13:49    5.20 10 595.00 734 1,180.5 True x
1/9/2008 14:00    5.18  585.00 729 1,152.6 True x
1/16/2008 10:38    0.52 11.00 25.3 0.8 True x
1/30/2008 10:29    0.22 7.00 12.1 0.2 True x
2/14/2008 14:07    1.58 49.00 113 15.2 True x
3/14/2008 10:25    1.66 66.00 122 22.0 True x
3/31/2008 10:04    14.84 11 115.00 3580 1,119.4 True x
4/7/2008 11:33    9.91 13 274.00 1920 1,421.8 True x
4/18/2008 10:11    3.26 16 75.00 356 72.1 True x
4/22/2008 14:22    2.85 18 66.00 291 52.0 True x
4/22/2008 14:33    2.85  61.00 291 48.2 True x
4/29/2008 10:23    2.54 13 104.00 246 69.1 True x
5/13/2008 10:01    15.85 14 58.00 4140 655.6 True x
5/22/2008 10:18    2.18 17 45.00 190 23.1 True x
5/28/2008 10:16    12.62 18 173.00 2710 1,272.6 True x
6/11/2008 14:27    11.33 25 57.00 2320 357.5 True x
6/11/2008 14:40    11.31  56.00 2320 355.5 True x
6/19/2008 10:27    2.06 23 33.00 173 15.8 True x
6/30/2008 10:25    3.96 24 29.00 484 38.2 True x
7/10/2008 10:46    6.35 25 772.00 993 2,070.2 True x
7/21/2008 10:14    0.78 28 32.00 40.8 3.6 True x
7/29/2008 10:17    3.28 25 266.00 360 258.7 True x
8/13/2008 10:10    1.04 23 41.00 60.1 6.7 True x
8/27/2008 10:24    0.37 24 18.00 18.1 0.9 True x
9/3/2008 13:41    0.27 27 17.00 14 0.6 True x
9/18/2008 10:16    17.35 19 29.00 5330 430.9 True x
9/18/2008 10:30    17.35  23.00 5330 342.2 True x
9/23/2008 10:08    2.06 21 36.00 173 17.0 True x
9/29/2008 10:23    0.89 20 23.00 48.5 3.0 True x
10/15/2008 10:37    0.49 20 14.00 23.8 1.0 True x
10/22/2008 13:54    0.43 14 13.00 20.8 0.8 True x
10/30/2008 10:25    0.58 4.00 28.6 0.3 True x
11/13/2008 10:12    0.89 10.00 48.5 1.4 True x
11/20/2008 13:11    0.70 7.00 35.6 0.7 True x
12/1/2008 10:19    0.57 4.00 28 0.4 True x
12/9/2008 10:47    0.61 7.00 30.2 0.6 True x
1/5/2009 10:19    2.72 50.00 272 37.1 True x
1/13/2009 10:06    1.54 12.00 108 3.5 True x
1/22/2009 10:51    1.05 10.00 60.9 1.7 True x
2/10/2009 10:28    3.41 72.00 382 74.5 True x
2/18/2009 13:36    4.06 114.00 503 155.2 True x
2/18/2009 13:48    4.05  124.00 501 168.0 True x
2/24/2009 10:10    1.85 28.00 145 11.2 True x
3/3/2009 10:09    2.26 84.00 202 46.0 True x
3/19/2009 10:24    1.56 13 30.00 111 9.3 True x
3/26/2009 10:02    3.06 14 193.00 324 168.8 True x
3/31/2009 09:51    6.42 10 465.00 1010 1,269.2 True x
4/7/2009 13:35    3.06 10 71.00 324 62.6 True x
4/16/2009 10:50    9.45 12 123.00 1800 601.0 True x
4/29/2009 09:52    6.80 18 478.00 1100 1,422.1 True x
5/14/2009 13:39    5.32 20 303.00 760 623.5 True x
5/14/2009 13:51    5.36  627.00 769 1,302.6 True x
6/5/2009 11:46    2.19 21 83.00 192 43.0 True x
6/11/2009 10:25    6.17 23 1,425.00 951 3,659.0 True x
6/18/2009 14:14    14.01 25 113.00 3210 983.9 True x
6/18/2009 14:26    14.01  94.00 3210 819.4 True x
6/30/2009 10:03    1.23 27 71.00 76.7 14.8 True x
7/9/2009 10:29    3.80 25 123.00 453 150.5 True x
7/17/2009 14:49    5.23 25 559.00 740 1,117.2 True x
7/29/2009 10:00    0.76 25 29.00 39.5 3.1 True x
8/13/2009 09:59    0.49 26 47.00 23.8 3.1 True x
8/19/2009 13:30    4.20 26 278.00 530 398.7 True x
8/19/2009 13:44    4.15  269.00 520 378.1 True x
8/31/2009 10:18    0.40 21 26.00 19.5 1.4 True x
9/10/2009 10:16    0.57 23 42.00 28 3.2 True x
9/24/2009 13:58    0.34 22 28.00 16.8 1.3 True x
10/1/2009 10:07    0.33 17 17.00 21 1.0 False x
10/15/2009 10:37    7.30 11 323.00 1140 996.2 False x
10/21/2009 12:19    1.72 13 38.00 121 12.6 False x
10/28/2009 13:58    12.00 14 43.00 2520 297.8 False x
11/3/2009 10:06    17.36 13 34.00 5340 501.3 False x
11/10/2009 13:46    2.18 16 28.00 169 13.2 False x
11/19/2009 11:34    14.01 11 58.00 3210 508.5 False x
12/2/2009 10:05    2.38 17.00 192 9.2 False x
12/10/2009 13:32    6.59 172.00 965 450.6 False x
12/15/2009 14:05    8.10 293.00 1360 1,076.3 False x
12/15/2009 14:15    8.10  214.00 1360 789.0 False x
12/23/2009 10:50    3.04 81.00 278 61.5 False x
1/21/2010 10:35    3.30 45.00 316 38.7 False x
1/28/2010 12:02    6.78 96.00 1010 262.0 False x
2/2/2010 10:24    2.27 21.00 179 10.3 False x
2/11/2010 11:24    2.92 36.00 261 25.5 False x
2/25/2010 13:29    11.19 129.00 2280 795.2 False x
3/2/2010 10:05    2.72 37.00 235 23.5 False x
3/10/2010 13:39    2.12 12 17.00 162 7.5 False x
3/10/2010 13:56    2.12  18.00 162 8.0 False x
3/25/2010 10:37    2.43 13 46.00 198 24.7 False x
3/31/2010 10:20    2.81 14 41.00 247 28.0 False x
4/8/2010 11:06    3.99 19 170.00 426 195.7 False x
4/21/2010 14:05    1.26 17 24.00 80 5.3 False x
4/29/2010 09:57    2.02 17 50.00 151 20.4 False x
5/7/2010 10:39    1.98 21 78.00 147 31.1 False x
5/20/2010 10:22    11.59 17 234.00 2400 1,522.3 False x
5/26/2010 10:00    3.06 24 113.00 281 85.8 False x
6/10/2010 10:45    1.48 24 83.00 98 22.0 False x
6/10/2010 10:58    1.48  86.00 98 22.8 False x
6/16/2010 14:03    5.81 26 2,768.00 783 5,853.2 False x
6/30/2010 10:01    5.83 26 534.00 787 1,135.8 False x
7/8/2010 11:43    0.82 28 60.00 48 7.9 False x
7/21/2010 10:43    6.57 25 856.00 960 2,220.3 False x

Data Set Parameters and Explanation

Help with downloading, csv files, printing, and more





Illinois State Water Survey

2204 Griffith Dr
Champaign, IL 61820-7463
217-244-5459
info@isws.illinois.edu

Terms of use. Email the Web Administrator with questions or comments.

© 2017 University of Illinois Board of Trustees. All rights reserved.
For permissions information, contact the Illinois State Water Survey.
Site Map